Time;durP1;ratioP1;P1;durP2;ratioP2;P2;SDS_P1;SDS_P2;PMS_P1;PMS_P2;Temp;Humidity;BMP_temperature;BMP_pressure;BME280_temperature;BME280_humidity;BME280_pressure;Samples;Min_cycle;Max_cycle;Signal;HPM_P1;HPM_P2
2022/08/26 00:04:18;;;;;;;8.85;4.63;;;22.60;99.90;;;21.00;89.32;99777.41;10438119;27;97422;-81
2022/08/26 00:09:24;;;;;;;8.73;5.30;;;22.50;99.90;;;20.96;89.70;99773.56;10452727;27;98700;-81
2022/08/26 00:14:26;;;;;;;7.75;4.65;;;22.40;99.90;;;20.90;89.87;99771.84;10422648;27;96845;-80
2022/08/26 00:19:33;;;;;;;9.95;5.63;;;22.40;99.90;;;20.86;90.00;99773.38;10426167;27;98401;-81
2022/08/26 00:24:36;;;;;;;8.38;4.90;;;22.30;99.90;;;20.81;90.57;99778.69;10437747;27;97242;-81
2022/08/26 00:29:39;;;;;;;5.97;5.10;;;22.30;99.90;;;20.77;90.80;99780.28;10436615;27;97291;-80
2022/08/26 00:34:42;;;;;;;9.27;5.03;;;22.20;99.90;;;20.72;91.10;99766.69;10435350;27;97602;-82
2022/08/26 00:39:46;;;;;;;8.05;5.63;;;22.20;99.90;;;20.69;91.52;99775.25;10437503;27;97520;-81
2022/08/26 00:44:49;;;;;;;7.05;4.63;;;22.20;99.90;;;20.67;91.67;99767.41;10419875;27;97350;-81
2022/08/26 00:49:54;;;;;;;6.00;4.60;;;22.20;99.90;;;20.61;91.82;99770.28;10436759;27;98143;-81
2022/08/26 00:55:22;;;;;;;7.43;4.93;;;22.10;99.90;;;20.57;92.26;99765.38;10445412;27;96659;-81
2022/08/26 01:00:30;;;;;;;9.27;4.90;;;22.10;99.90;;;20.52;92.19;99768.00;10419628;27;98833;-81
2022/08/26 01:05:33;;;;;;;8.88;4.80;;;22.00;99.90;;;20.48;92.36;99768.72;10413142;27;97492;-81
2022/08/26 01:10:36;;;;;;;7.78;4.95;;;22.00;99.90;;;20.42;92.97;99767.75;10432633;27;98862;-81
2022/08/26 01:15:48;;;;;;;9.85;5.70;;;21.90;99.90;;;20.38;93.04;99766.59;10408016;27;98345;-81
2022/08/26 01:21:28;;;;;;;9.20;5.50;;;21.90;99.90;;;20.36;93.29;99762.53;10432242;27;97675;-81
2022/08/26 01:26:40;;;;;;;7.97;4.97;;;21.80;99.90;;;20.32;93.31;99752.19;10449862;27;98280;-81
2022/08/26 01:31:48;;;;;;;10.90;6.00;;;21.80;99.90;;;20.29;93.57;99758.09;10442821;27;97868;-81
2022/08/26 01:37:03;;;;;;;;;;;21.80;99.90;;;20.23;93.96;99763.63;10447523;27;96783;-81
2022/08/26 01:42:11;;;;;;;15.15;5.53;;;21.70;99.90;;;20.19;94.18;99757.09;10424543;27;99073;-82
2022/08/26 01:47:16;;;;;;;10.40;6.00;;;21.70;99.90;;;20.13;94.03;99749.94;10444613;27;98508;-82
2022/08/26 01:52:27;;;;;;;57.80;9.05;;;21.70;99.90;;;20.08;94.30;99752.56;10450920;27;97927;-81
2022/08/26 01:57:30;;;;;;;8.43;5.47;;;21.60;99.90;;;20.07;94.49;99757.13;10427005;27;97438;-81
2022/08/26 02:02:33;;;;;;;10.10;5.30;;;21.60;99.90;;;20.01;94.74;99756.22;10434101;27;98292;-81
2022/08/26 02:07:39;;;;;;;11.60;5.10;;;21.60;99.90;;;19.99;94.87;99752.13;10453220;27;96775;-82
2022/08/26 02:12:42;;;;;;;10.15;5.88;;;21.50;99.90;;;19.95;94.86;99757.16;10442486;27;98562;-82
2022/08/26 02:17:46;;;;;;;8.23;5.25;;;21.50;99.90;;;19.88;95.24;99751.09;10442317;27;97126;-81
2022/08/26 02:22:54;;;;;;;7.20;5.30;;;21.40;99.90;;;19.83;95.39;99759.09;10452925;27;97386;-81
2022/08/26 02:27:59;;;;;;;8.93;5.40;;;21.40;99.90;;;19.79;95.48;99752.53;10431075;27;98348;-81
2022/08/26 02:33:02;;;;;;;10.98;6.25;;;21.30;99.90;;;19.72;95.52;99747.28;10425541;27;98464;-81
2022/08/26 02:38:09;;;;;;;8.52;5.80;;;21.30;99.90;;;19.68;95.89;99750.72;10434602;27;96873;-80
2022/08/26 02:43:13;;;;;;;9.10;6.43;;;21.20;99.90;;;19.65;95.92;99756.56;10433689;27;98324;-81
2022/08/26 02:48:20;;;;;;;74.78;11.50;;;21.20;99.90;;;19.60;95.92;99756.44;10444727;27;97448;-81
2022/08/26 02:53:22;;;;;;;55.85;9.63;;;21.10;99.90;;;19.57;96.33;99751.50;10415021;27;98457;-80
2022/08/26 02:58:27;;;;;;;11.63;6.75;;;21.10;99.90;;;19.53;96.66;99743.88;10428521;27;96798;-81
2022/08/26 03:03:30;;;;;;;14.75;7.03;;;21.10;99.90;;;19.52;96.82;99747.66;10434549;27;97392;-81
2022/08/26 03:08:34;;;;;;;13.50;8.88;;;21.10;99.90;;;19.50;96.89;99744.38;10443390;27;96954;-81
2022/08/26 03:13:38;;;;;;;11.30;6.78;;;21.00;99.90;;;19.46;96.83;99745.09;10433466;27;96791;-81
2022/08/26 03:18:42;;;;;;;11.43;6.97;;;21.00;99.90;;;19.42;97.26;99736.63;10434290;27;98980;-81
2022/08/26 03:23:54;;;;;;;11.50;6.60;;;20.90;99.90;;;19.39;97.58;99739.00;10420513;27;98774;-81
2022/08/26 03:34:22;;;;;;;9.50;5.82;;;20.90;99.90;;;19.36;97.85;99739.47;10431151;27;97309;-81
2022/08/26 03:39:25;;;;;;;17.25;6.18;;;20.90;99.90;;;19.33;97.61;99732.69;10433092;27;97060;-81
2022/08/26 03:44:28;;;;;;;18.83;9.82;;;20.90;99.90;;;19.31;97.89;99736.66;10450745;27;98628;-80
2022/08/26 03:49:33;;;;;;;16.48;6.65;;;20.80;99.90;;;19.27;97.81;99741.72;10429011;27;97313;-80
2022/08/26 03:54:37;;;;;;;9.30;6.90;;;20.80;99.90;;;19.25;98.31;99741.97;10444223;27;98664;-81
2022/08/26 03:59:40;;;;;;;69.45;13.57;;;20.80;99.90;;;19.20;98.23;99735.63;10437460;27;97047;-81
2022/08/26 04:04:43;;;;;;;12.15;6.70;;;20.70;99.90;;;19.17;98.02;99738.78;10432840;27;97416;-81
2022/08/26 04:09:46;;;;;;;14.95;6.88;;;20.70;99.90;;;19.15;98.80;99733.63;10444576;27;98699;-81
2022/08/26 04:14:51;;;;;;;9.60;5.80;;;20.70;99.90;;;19.16;98.87;99737.16;10431214;27;97281;-81
2022/08/26 04:19:55;;;;;;;13.38;5.88;;;20.70;99.90;;;19.18;99.07;99737.72;10429916;27;98812;-81
2022/08/26 04:24:58;;;;;;;11.65;7.68;;;20.70;99.90;;;19.20;99.06;99741.84;10437315;27;98696;-81
2022/08/26 04:30:03;;;;;;;10.93;6.38;;;20.70;99.90;;;19.23;99.23;99732.47;10442545;27;98427;-81
2022/08/26 04:35:07;;;;;;;15.00;7.07;;;20.70;99.90;;;19.24;99.45;99740.28;10446223;27;98826;-82
2022/08/26 04:40:11;;;;;;;85.85;11.35;;;20.70;99.90;;;19.25;99.45;99733.03;10424957;27;98375;-82
2022/08/26 04:45:15;;;;;;;11.02;6.18;;;20.70;99.90;;;19.32;99.78;99736.44;10422884;27;96848;-81
2022/08/26 04:50:19;;;;;;;9.95;6.03;;;20.80;99.90;;;19.41;100.00;99732.31;10428393;27;98172;-82
2022/08/26 04:55:24;;;;;;;12.38;5.93;;;20.90;99.90;;;19.47;100.00;99736.75;10439831;27;96711;-81
2022/08/26 05:00:44;;;;;;;96.65;11.82;;;21.00;99.90;;;19.61;100.00;99741.91;10432918;27;98366;-82
2022/08/26 05:05:50;;;;;;;14.35;5.82;;;21.10;99.90;;;19.71;100.00;99734.03;10435535;27;98587;-81
2022/08/26 05:10:54;;;;;;;14.85;5.93;;;21.30;99.90;;;19.83;100.00;99732.13;10444276;27;97508;-81
2022/08/26 05:16:04;;;;;;;10.90;5.57;;;21.40;99.90;;;19.96;100.00;99742.63;10447115;27;96932;-82
2022/08/26 05:21:07;;;;;;;9.87;5.43;;;21.50;99.90;;;20.09;100.00;99735.31;10445339;27;98483;-82
2022/08/26 05:26:11;;;;;;;10.90;5.20;;;21.60;99.90;;;20.21;100.00;99736.06;10438122;27;98122;-81
2022/08/26 05:31:30;;;;;;;13.20;5.28;;;21.70;99.90;;;20.32;100.00;99743.28;10450598;27;96683;-82
2022/08/26 05:36:34;;;;;;;10.30;5.40;;;21.80;99.90;;;20.47;100.00;99737.38;10440510;27;97484;-82
2022/08/26 05:41:41;;;;;;;13.30;6.05;;;22.00;99.90;;;20.63;100.00;99746.53;10438598;27;98501;-81
2022/08/26 05:46:46;;;;;;;14.50;5.85;;;22.10;99.90;;;20.78;100.00;99733.31;10437318;27;97962;-81
2022/08/26 05:51:50;;;;;;;12.52;5.00;;;22.30;99.90;;;20.95;99.75;99736.81;10448364;27;96848;-81
2022/08/26 05:56:53;;;;;;;12.68;4.70;;;22.50;99.90;;;21.14;99.25;99747.34;10437282;27;98384;-81
2022/08/26 06:01:56;;;;;;;8.88;3.85;;;22.70;99.90;;;21.31;97.50;99750.88;10439727;27;97057;-82
2022/08/26 06:06:59;;;;;;;11.32;4.00;;;22.90;99.90;;;21.49;96.79;99749.78;10443644;27;97423;-82
2022/08/26 06:12:03;;;;;;;8.68;3.67;;;23.00;99.90;;;21.66;95.67;99747.03;10432337;27;98310;-83
2022/08/26 06:17:08;;;;;;;48.90;6.75;;;23.20;99.90;;;21.83;94.54;99736.94;10428508;27;97413;-82
2022/08/26 06:25:36;;;;;;;14.65;4.60;;;23.40;99.90;;;22.05;93.29;99753.97;10443947;27;98523;-82
2022/08/26 06:27:35;;;;;;;15.65;4.40;;;23.60;99.90;;;22.33;91.69;99749.41;10453084;27;96699;-82
2022/08/26 06:32:38;;;;;;;24.92;4.57;;;23.80;99.90;;;22.54;90.40;99748.50;10445618;27;96623;-82
2022/08/26 06:37:41;;;;;;;25.00;4.97;;;24.10;99.90;;;22.75;87.69;99749.53;10441843;27;96581;-82
2022/08/26 06:42:44;;;;;;;24.67;5.20;;;24.30;99.90;;;22.94;85.12;99747.25;10424014;27;98232;-83
2022/08/26 06:47:48;;;;;;;39.28;7.07;;;24.50;99.90;;;23.13;84.67;99756.59;10437400;27;97812;-81
2022/08/26 06:52:52;;;;;;;18.75;4.88;;;24.70;99.90;;;23.29;82.42;99751.28;10430958;27;96587;-81
2022/08/26 06:57:58;;;;;;;20.00;3.88;;;24.90;99.90;;;23.45;81.20;99752.97;10438822;27;98030;-81
2022/08/26 07:03:03;;;;;;;29.27;4.13;;;25.10;99.90;;;23.58;79.55;99752.53;10445438;27;96719;-81
2022/08/26 07:08:06;;;;;;;21.67;4.45;;;25.30;99.90;;;23.76;76.75;99749.38;10450571;27;97501;-81
2022/08/26 07:13:11;;;;;;;14.90;3.88;;;25.40;99.90;;;23.92;75.67;99755.66;10445432;27;97568;-81
2022/08/26 07:18:15;;;;;;;10.00;4.25;;;25.60;99.90;;;24.11;74.02;99750.56;10437928;27;97311;-81
2022/08/26 07:23:19;;;;;;;12.90;3.63;;;25.70;99.90;;;24.26;71.36;99745.16;10438244;27;96738;-81
2022/08/26 07:28:24;;;;;;;11.90;4.03;;;25.90;99.90;;;24.44;69.74;99751.19;10437114;27;96477;-80
2022/08/26 07:33:28;;;;;;;12.13;3.50;;;26.10;99.90;;;24.58;67.87;99743.31;10449606;27;97269;-80
2022/08/26 07:38:33;;;;;;;13.00;3.28;;;26.20;99.90;;;24.70;65.22;99739.25;10455444;27;96499;-79
2022/08/26 07:43:36;;;;;;;26.17;4.95;;;26.40;99.90;;;24.86;64.83;99734.63;10448580;27;96615;-81
2022/08/26 07:48:40;;;;;;;9.48;3.45;;;26.60;99.90;;;25.07;62.78;99735.47;10448277;27;96702;-81
2022/08/26 07:53:49;;;;;;;17.83;3.90;;;26.70;98.90;;;25.59;62.07;99732.28;10454994;27;96645;-80
2022/08/26 07:58:54;;;;;;;10.80;3.70;;;27.00;98.30;;;25.82;60.99;99736.31;10431193;27;97640;-80
2022/08/26 08:03:59;;;;;;;12.77;3.40;;;27.10;97.50;;;25.85;58.80;99732.22;10437042;27;96760;-81
2022/08/26 08:09:04;;;;;;;11.63;3.67;;;27.30;95.50;;;25.92;58.82;99732.75;10417320;27;96657;-80
2022/08/26 08:14:08;;;;;;;22.15;4.55;;;27.50;94.80;;;25.98;57.61;99725.38;10434844;27;98532;-80
2022/08/26 08:19:14;;;;;;;8.32;3.63;;;27.60;93.60;;;26.06;56.48;99722.03;10445093;27;96534;-80
2022/08/26 08:24:17;;;;;;;30.60;4.70;;;27.70;92.70;;;26.18;56.49;99717.06;10431611;27;97331;-80
2022/08/26 08:29:20;;;;;;;11.18;3.40;;;27.80;91.90;;;26.32;56.30;99722.66;10458016;27;97299;-80
2022/08/26 08:34:25;;;;;;;14.38;3.95;;;28.00;91.70;;;26.47;55.75;99710.88;10450927;27;96735;-80
2022/08/26 08:39:31;;;;;;;7.88;3.80;;;28.20;90.80;;;26.62;55.21;99705.31;10443394;27;98663;-81
2022/08/26 08:44:43;;;;;;;9.10;3.30;;;28.30;90.10;;;26.73;55.76;99709.56;10425365;27;98172;-80
2022/08/26 08:50:03;;;;;;;12.93;3.63;;;28.50;90.30;;;26.86;54.90;99698.00;10432535;27;97681;-81
2022/08/26 08:55:07;;;;;;;12.13;3.58;;;28.60;88.60;;;26.97;52.38;99697.91;10446120;27;97713;-80
2022/08/26 09:00:17;;;;;;;16.60;3.70;;;28.70;85.10;;;27.11;52.84;99704.31;10443734;27;98477;-80
2022/08/26 09:05:31;;;;;;;7.40;3.25;;;28.80;84.00;;;27.30;52.63;99691.56;10435281;27;97106;-80
2022/08/26 09:10:48;;;;;;;9.57;3.55;;;29.00;82.70;;;27.52;50.69;99692.94;10439555;27;96650;-81
2022/08/26 09:16:13;;;;;;;11.32;3.58;;;29.10;80.10;;;27.61;50.39;99689.28;10457480;27;96915;-80
2022/08/26 09:21:18;;;;;;;8.35;3.15;;;29.30;80.30;;;27.72;50.63;99677.16;10455087;27;98782;-80
2022/08/26 09:26:28;;;;;;;8.95;3.17;;;29.40;79.20;;;27.86;49.09;99671.75;10446633;27;97950;-81
2022/08/26 09:31:36;;;;;;;12.00;3.87;;;29.60;77.90;;;27.96;47.80;99666.16;10439739;27;96976;-80
2022/08/26 09:36:44;;;;;;;9.43;3.00;;;29.70;74.50;;;28.13;48.34;99667.53;10437576;27;99095;-80
2022/08/26 09:42:23;;;;;;;14.45;3.72;;;29.90;73.80;;;28.32;49.14;99659.38;10446018;27;96954;-81
2022/08/26 09:47:46;;;;;;;9.10;3.13;;;30.00;75.00;;;28.45;49.20;99667.59;10442592;27;96625;-80
2022/08/26 09:53:17;;;;;;;7.30;3.40;;;30.20;75.20;;;28.60;50.01;99654.78;10440176;27;97601;-81
2022/08/26 09:58:35;;;;;;;11.82;3.67;;;30.40;74.60;;;28.79;49.00;99656.34;10454357;27;97498;-81
2022/08/26 10:03:40;;;;;;;15.30;3.75;;;30.60;74.90;;;29.04;48.88;99655.06;10446681;27;97384;-81
2022/08/26 10:08:51;;;;;;;11.75;3.50;;;30.80;73.30;;;29.20;47.46;99652.81;10442778;27;96575;-80
2022/08/26 10:14:26;;;;;;;11.95;3.20;;;30.90;72.20;;;29.29;44.90;99653.75;10443772;27;97448;-81
2022/08/26 10:20:05;;;;;;;10.75;4.10;;;31.10;70.10;;;29.39;43.86;99643.69;10434489;27;97253;-81
2022/08/26 10:25:48;;;;;;;9.57;3.15;;;31.20;68.20;;;29.48;45.53;99637.19;10438256;27;97774;-81
2022/08/26 10:31:32;;;;;;;11.50;3.05;;;31.20;68.10;;;29.68;44.13;99633.22;10441718;27;97320;-81
2022/08/26 10:37:00;;;;;;;13.30;3.33;;;31.40;67.50;;;29.80;42.99;99630.75;10440830;27;98256;-81
2022/08/26 10:42:35;;;;;;;11.82;3.58;;;31.70;66.50;;;29.99;42.12;99621.56;10442360;27;97064;-81
2022/08/26 10:47:42;;;;;;;13.43;3.03;;;32.00;64.30;;;30.16;41.77;99621.72;10441595;27;98344;-80
2022/08/26 10:53:14;;;;;;;13.00;3.58;;;32.10;62.80;;;30.34;41.05;99614.41;10444261;27;97857;-82
2022/08/26 10:58:43;;;;;;;9.52;3.10;;;32.20;62.70;;;30.48;41.67;99604.19;10443178;27;98472;-81
2022/08/26 11:04:18;;;;;;;9.73;2.97;;;32.30;61.80;;;30.68;40.66;99604.78;10414201;27;96838;-80
2022/08/26 11:09:45;;;;;;;12.48;3.15;;;32.40;61.90;;;30.84;39.75;99598.59;10440466;27;96663;-81
2022/08/26 11:14:49;;;;;;;11.23;3.30;;;32.70;59.20;;;31.05;37.77;99590.56;10436646;27;98698;-81
2022/08/26 11:20:03;;;;;;;9.73;3.10;;;32.90;58.20;;;31.07;36.68;99591.09;10441566;27;97001;-81
2022/08/26 11:25:23;;;;;;;12.88;3.05;;;32.90;56.40;;;31.19;37.98;99590.47;10438207;27;97342;-80
2022/08/26 11:30:39;;;;;;;7.65;2.38;;;33.00;57.10;;;31.31;36.21;99581.63;10432805;27;96550;-81
2022/08/26 11:35:46;;;;;;;18.90;3.50;;;33.20;56.00;;;31.45;37.07;99579.53;10429571;27;98184;-81
2022/08/26 11:41:10;;;;;;;8.68;2.97;;;33.30;56.30;;;31.61;37.65;99566.97;10441457;27;98156;-81
2022/08/26 11:46:25;;;;;;;8.45;2.97;;;33.30;55.70;;;31.68;35.76;99561.78;10441027;27;98171;-81
2022/08/26 11:51:30;;;;;;;10.27;2.88;;;33.40;55.90;;;31.83;36.46;99562.44;10433043;27;97384;-81
2022/08/26 11:56:35;;;;;;;10.30;3.22;;;33.60;55.30;;;32.11;38.30;99551.91;10448908;27;96779;-80
2022/08/26 12:01:44;;;;;;;10.63;2.92;;;33.90;56.70;;;32.16;35.59;99546.25;10416376;27;96698;-80
2022/08/26 12:06:50;;;;;;;12.13;3.42;;;34.20;55.00;;;32.15;33.89;99539.13;10435845;27;98386;-80
2022/08/26 12:12:25;;;;;;;9.55;2.75;;;34.30;52.90;;;32.40;34.47;99538.28;10442072;27;98546;-82
2022/08/26 12:17:28;;;;;;;9.75;2.70;;;34.50;53.20;;;32.65;32.96;99538.50;10430485;27;97361;-81
2022/08/26 12:22:34;;;;;;;6.95;2.38;;;34.80;51.90;;;32.70;32.44;99536.38;10446786;27;98998;-79
2022/08/26 12:27:44;;;;;;;13.90;2.70;;;34.90;50.60;;;32.79;30.89;99532.75;10424925;27;96997;-79
2022/08/26 12:33:07;;;;;;;9.30;2.60;;;35.10;49.20;;;33.06;32.70;99529.56;10443374;27;97243;-80
2022/08/26 12:38:27;;;;;;;6.72;2.28;;;35.40;49.70;;;33.24;30.03;99519.22;10451384;27;97646;-79
2022/08/26 12:43:42;;;;;;;9.07;2.80;;;35.70;48.20;;;33.38;30.78;99519.75;10423422;27;96677;-79
2022/08/26 12:48:48;;;;;;;9.80;2.85;;;35.80;48.20;;;33.47;30.66;99505.97;10435431;27;100424;-80
2022/08/26 12:53:52;;;;;;;8.87;2.67;;;35.80;47.70;;;33.61;30.19;99503.72;10439360;27;98706;-80
2022/08/26 12:59:25;;;;;;;11.63;2.25;;;35.70;48.00;;;33.66;28.60;99494.44;10429961;27;96602;-79
2022/08/26 13:04:42;;;;;;;9.93;2.28;;;35.60;46.70;;;33.70;30.38;99507.19;10431342;27;97467;-79
2022/08/26 13:09:45;;;;;;;8.65;3.13;;;35.50;47.30;;;33.64;29.96;99492.00;10425073;27;98900;-79
2022/08/26 13:14:48;;;;;;;7.53;2.67;;;35.40;47.60;;;33.50;30.94;99486.00;10443341;27;96572;-79
2022/08/26 13:19:51;;;;;;;8.13;2.60;;;35.20;47.80;;;33.28;29.63;99484.34;10449788;27;98467;-79
2022/08/26 13:24:55;;;;;;;6.97;2.78;;;35.00;46.90;;;33.09;29.66;99481.28;10436883;27;96574;-80
2022/08/26 13:29:59;;;;;;;11.05;2.88;;;34.90;47.30;;;32.99;30.60;99469.53;10446474;27;97985;-80
2022/08/26 13:35:02;;;;;;;12.05;2.70;;;34.70;47.70;;;32.89;31.33;99477.38;10453218;27;98570;-80
2022/08/26 13:40:08;;;;;;;6.75;2.22;;;34.60;48.20;;;32.79;30.68;99466.72;10424997;27;98051;-80
2022/08/26 13:45:11;;;;;;;10.25;3.30;;;34.50;47.60;;;32.74;30.45;99462.22;10438502;27;98089;-80
2022/08/26 13:50:14;;;;;;;23.63;3.33;;;34.40;47.60;;;32.55;30.57;99457.16;10425381;27;98841;-80
2022/08/26 13:55:17;;;;;;;20.02;3.58;;;34.30;47.90;;;32.50;31.51;99457.34;10435912;27;98647;-79
2022/08/26 14:00:22;;;;;;;22.52;3.92;;;34.30;48.50;;;32.40;30.54;99460.47;10440777;27;98459;-81
2022/08/26 14:05:26;;;;;;;12.70;2.83;;;34.20;47.60;;;32.37;31.43;99453.69;10434005;27;98338;-80
2022/08/26 14:10:29;;;;;;;16.67;3.80;;;34.10;47.70;;;32.37;31.10;99461.13;10432507;27;97462;-81
2022/08/26 14:15:34;;;;;;;7.85;3.05;;;34.10;47.90;;;32.36;32.66;99462.28;10430002;27;97755;-82
2022/08/26 14:20:38;;;;;;;22.15;4.65;;;34.10;48.40;;;32.42;31.90;99458.19;10436865;27;98653;-81
2022/08/26 14:25:41;;;;;;;62.90;6.57;;;34.20;48.40;;;32.38;30.28;99468.22;10433297;27;98260;-81
2022/08/26 14:30:51;;;;;;;22.92;3.88;;;34.20;47.30;;;32.47;30.88;99466.25;10423288;27;99062;-81
2022/08/26 14:36:26;;;;;;;36.53;5.13;;;34.30;47.50;;;32.47;31.55;99452.50;10430986;27;97111;-81
2022/08/26 14:41:18;;;;;;;298.65;26.13;;;34.30;47.90;;;32.67;33.00;99457.25;10433225;27;98220;-81
2022/08/26 14:46:21;;;;;;;5.88;2.60;;;34.40;49.10;;;32.82;31.79;99455.88;10439105;27;98947;-81
2022/08/26 14:51:25;;;;;;;8.35;2.40;;;34.60;48.90;;;32.93;31.40;99459.06;10431470;27;98060;-81
2022/08/26 14:56:30;;;;;;;9.23;3.25;;;34.60;47.80;;;32.95;31.07;99451.28;10443925;27;96816;-81
2022/08/26 15:01:33;;;;;;;12.15;2.85;;;34.50;47.70;;;33.14;31.49;99446.09;10441581;27;98440;-80
2022/08/26 15:06:36;;;;;;;51.20;5.03;;;34.60;48.20;;;33.26;30.34;99448.91;10423969;27;98932;-82
2022/08/26 15:11:40;;;;;;;10.13;2.70;;;34.90;47.80;;;33.21;29.42;99438.09;10430596;27;98872;-81
2022/08/26 15:16:42;;;;;;;113.85;12.13;;;35.00;46.80;;;33.33;31.16;99442.06;10421230;27;98478;-81
2022/08/26 15:21:46;;;;;;;78.93;9.05;;;35.10;47.30;;;33.18;30.82;99430.53;10437900;27;98843;-83
2022/08/26 15:26:52;;;;;;;62.53;8.80;;;35.00;47.80;;;33.12;31.42;99431.06;10420946;27;98024;-82
2022/08/26 15:31:54;;;;;;;71.45;6.70;;;34.90;48.20;;;33.03;31.37;99431.94;10433882;27;97729;-83
2022/08/26 15:36:59;;;;;;;9.63;2.65;;;34.80;47.70;;;32.90;32.46;99433.00;10437912;27;96621;-83
2022/08/26 15:42:02;;;;;;;34.17;4.35;;;34.70;48.70;;;32.81;32.01;99428.66;10437189;27;98556;-82
2022/08/26 15:47:06;;;;;;;107.80;10.77;;;34.50;48.60;;;32.66;33.54;99425.38;10425663;27;98287;-82
2022/08/26 15:52:09;;;;;;;43.83;5.38;;;34.40;50.00;;;32.37;33.77;99419.88;10436126;27;97602;-82
2022/08/26 15:57:13;;;;;;;53.47;6.13;;;34.20;49.90;;;32.04;34.99;99414.22;10437417;27;98463;-82
2022/08/26 16:02:20;;;;;;;73.78;6.85;;;33.90;51.10;;;31.87;36.13;99415.06;10436943;27;98379;-82
2022/08/26 16:07:23;;;;;;;8.07;2.88;;;33.60;52.00;;;31.70;36.48;99410.41;10431790;27;98282;-83
2022/08/26 16:12:27;;;;;;;32.25;5.32;;;33.50;52.70;;;31.51;37.23;99407.22;10416551;27;99204;-83
2022/08/26 16:17:30;;;;;;;16.55;3.70;;;33.20;53.30;;;31.26;37.48;99411.63;10413900;27;97646;-83
2022/08/26 16:22:33;;;;;;;21.50;3.85;;;33.00;53.70;;;31.03;37.94;99414.50;10431216;27;98237;-83
2022/08/26 16:27:36;;;;;;;15.98;3.50;;;32.70;53.80;;;30.81;39.58;99411.91;10427876;27;98759;-82
2022/08/26 16:32:38;;;;;;;9.15;3.20;;;32.50;54.80;;;30.56;40.89;99407.97;10431919;27;97425;-82
2022/08/26 16:37:41;;;;;;;16.65;3.75;;;32.20;55.40;;;30.32;42.00;99411.13;10434576;27;98602;-82
2022/08/26 16:42:44;;;;;;;33.53;4.68;;;31.90;56.20;;;30.10;42.78;99417.44;10431523;27;98543;-82
2022/08/26 16:47:48;;;;;;;32.75;5.05;;;31.70;57.10;;;29.86;43.72;99417.81;10438178;27;98576;-82
2022/08/26 16:52:54;;;;;;;6.05;2.55;;;31.40;57.50;;;29.67;44.08;99426.28;10436244;27;98762;-82
2022/08/26 16:57:58;;;;;;;8.10;2.53;;;31.20;57.50;;;29.43;44.75;99426.56;10432817;27;97957;-82
2022/08/26 17:03:01;;;;;;;7.00;2.72;;;31.00;57.80;;;29.19;44.99;99431.53;10437322;27;98468;-82
2022/08/26 17:08:04;;;;;;;11.52;3.17;;;30.70;58.20;;;28.96;45.38;99441.63;10433872;27;97881;-82
2022/08/26 17:13:07;;;;;;;10.02;3.63;;;30.50;58.80;;;28.71;46.09;99432.84;10441724;27;97149;-82
2022/08/26 17:18:11;;;;;;;10.90;3.60;;;30.20;59.50;;;28.47;47.65;99433.06;10444767;27;96659;-83
2022/08/26 17:23:15;;;;;;;10.88;3.08;;;30.00;60.70;;;28.23;48.62;99435.19;10434381;27;98117;-82
2022/08/26 17:28:20;;;;;;;11.50;3.03;;;29.80;61.40;;;27.99;49.59;99432.63;10433112;27;98837;-83
2022/08/26 17:33:23;;;;;;;12.13;3.60;;;29.50;62.20;;;27.72;49.88;99433.41;10436025;27;98632;-83
2022/08/26 17:38:27;;;;;;;17.00;3.85;;;29.20;62.70;;;27.46;49.67;99435.69;10434929;27;98028;-82
2022/08/26 17:43:30;;;;;;;8.45;3.30;;;29.00;63.00;;;27.24;50.06;99430.88;10446570;27;98530;-83
2022/08/26 17:48:36;;;;;;;6.35;2.80;;;28.70;63.20;;;27.02;50.80;99427.91;10438059;27;98453;-84
2022/08/26 17:53:40;;;;;;;9.00;3.53;;;28.50;64.10;;;26.79;51.17;99440.50;10433129;27;98807;-83
2022/08/26 17:58:43;;;;;;;10.82;3.28;;;28.30;64.40;;;26.54;51.79;99439.72;10435961;27;98034;-83
2022/08/26 18:03:54;;;;;;;11.65;3.13;;;28.00;64.90;;;26.34;52.50;99437.22;10434950;27;97937;-83
2022/08/26 18:09:02;;;;;;;11.32;4.15;;;27.80;65.70;;;26.13;53.14;99434.72;10423666;27;97334;-83
2022/08/26 18:14:05;;;;;;;8.50;3.22;;;27.60;66.90;;;25.95;54.82;99438.19;10432064;27;98832;-83
2022/08/26 18:19:08;;;;;;;11.50;3.15;;;27.40;67.80;;;25.77;55.39;99437.00;10444954;27;97984;-84
2022/08/26 18:24:11;;;;;;;23.73;3.80;;;27.20;68.40;;;25.59;55.62;99437.66;10433930;27;98153;-84
2022/08/26 18:29:18;;;;;;;7.38;3.22;;;27.00;68.60;;;25.36;56.49;99448.16;10437540;27;96610;-84
2022/08/26 18:34:21;;;;;;;10.00;3.20;;;26.80;69.70;;;25.16;57.01;99442.09;10439368;27;96907;-84
2022/08/26 18:39:26;;;;;;;7.85;3.47;;;26.60;70.20;;;24.97;58.20;99452.78;10435083;27;98018;-81
2022/08/26 18:44:29;;;;;;;10.48;4.07;;;26.40;71.20;;;24.79;59.01;99463.19;10438176;27;97457;-84
2022/08/26 18:49:43;;;;;;;14.10;4.30;;;26.20;71.70;;;24.64;59.47;99471.41;10436238;27;97088;-83
2022/08/26 18:54:45;;;;;;;8.85;3.05;;;26.10;72.40;;;24.48;60.38;99470.66;10437084;27;97001;-84
2022/08/26 18:59:52;;;;;;;12.45;4.50;;;25.90;73.40;;;24.32;61.11;99479.09;10414565;27;97082;-84
2022/08/26 19:04:55;;;;;;;15.43;3.67;;;25.70;74.10;;;24.15;61.89;99474.78;10428007;27;100158;-84
2022/08/26 19:09:58;;;;;;;7.75;3.13;;;25.60;74.90;;;23.97;61.99;99476.16;10423446;27;98212;-85
2022/08/26 19:15:04;;;;;;;10.70;3.85;;;25.40;75.40;;;23.84;62.37;99479.44;10427619;27;96761;-85
2022/08/26 19:20:08;;;;;;;7.80;2.85;;;25.30;75.90;;;23.78;62.26;99475.09;10440022;27;97044;-84
2022/08/26 19:25:12;;;;;;;8.55;3.20;;;25.20;75.90;;;23.69;62.44;99476.72;10445015;27;97914;-84
2022/08/26 19:30:15;;;;;;;5.80;2.85;;;25.10;76.10;;;23.63;62.94;99480.50;10426090;27;97944;-84
2022/08/26 19:35:18;;;;;;;7.78;2.97;;;25.10;76.70;;;23.51;63.42;99486.19;10445158;27;96522;-84
2022/08/26 19:40:21;;;;;;;6.85;3.08;;;24.90;77.10;;;23.41;63.75;99478.84;10414803;27;98698;-84
2022/08/26 19:45:24;;;;;;;9.07;3.17;;;24.80;76.80;;;23.36;63.06;99486.16;10418696;27;98711;-85
2022/08/26 19:50:32;;;;;;;8.82;2.80;;;24.80;77.40;;;23.33;63.14;99486.69;10415101;27;96988;-85
2022/08/26 19:55:35;;;;;;;10.82;3.50;;;24.80;77.10;;;23.28;62.81;99489.41;10420991;27;97789;-84
2022/08/26 20:00:40;;;;;;;6.55;2.70;;;24.70;77.30;;;23.28;61.87;99498.38;10439072;27;98241;-85
2022/08/26 20:05:43;;;;;;;11.20;2.80;;;24.70;76.50;;;23.28;61.06;99501.06;10435863;27;98522;-84
2022/08/26 20:10:49;;;;;;;7.35;2.50;;;24.70;76.30;;;23.28;61.32;99500.25;10422614;27;96610;-84
2022/08/26 20:15:52;;;;;;;7.68;2.88;;;24.80;76.40;;;23.18;61.48;99507.28;10425816;27;96697;-85
2022/08/26 20:26:17;;;;;;;7.85;3.30;;;24.60;76.60;;;23.02;62.56;99508.31;10433102;27;98286;-85
2022/08/26 20:31:21;;;;;;;7.85;2.70;;;24.50;76.70;;;22.93;61.88;99515.34;10422662;27;96768;-86
2022/08/26 20:36:26;;;;;;;7.72;2.83;;;24.40;77.20;;;22.83;62.84;99517.97;10423696;27;96755;-84
2022/08/26 20:41:30;;;;;;;6.65;3.10;;;24.30;77.80;;;22.70;63.26;99517.38;10417017;27;96693;-84
2022/08/26 20:46:36;;;;;;;5.35;2.78;;;24.20;78.30;;;22.61;63.66;99524.38;10440384;27;98125;-85
2022/08/26 20:51:41;;;;;;;7.60;2.83;;;24.00;78.80;;;22.49;63.91;99525.63;10438258;27;96638;-85
2022/08/26 20:56:45;;;;;;;7.53;2.33;;;23.90;79.10;;;22.37;64.30;99533.97;10434786;27;96742;-85
2022/08/26 21:01:50;;;;;;;6.60;3.00;;;23.80;79.60;;;22.26;64.68;99540.41;10440691;27;96611;-85
2022/08/26 21:06:54;;;;;;;5.65;2.97;;;23.70;80.40;;;22.19;65.28;99543.34;10429532;27;96658;-85
2022/08/26 21:11:57;;;;;;;9.43;2.90;;;23.60;80.50;;;22.11;65.95;99544.63;10426183;27;97115;-85
2022/08/26 21:17:01;;;;;;;5.82;2.63;;;23.50;81.20;;;22.05;66.24;99547.53;10411815;27;98110;-85
2022/08/26 21:22:04;;;;;;;9.15;3.33;;;23.40;81.60;;;22.01;66.51;99551.81;10432730;27;96636;-85